Time;durP1;ratioP1;P1;durP2;ratioP2;P2;SDS_P1;SDS_P2;PMS_P1;PMS_P2;Temp;Humidity;BMP_temperature;BMP_pressure;BME280_temperature;BME280_humidity;BME280_pressure;Samples;Min_cycle;Max_cycle;Signal;HPM_P1;HPM_P2
2021/08/29 00:00:24;;;;;;;6.40;4.07;;;14.20;99.90;;;;;;4956849;28;20198;-71
2021/08/29 00:02:52;;;;;;;12.97;3.93;;;14.20;99.90;;;;;;4959724;28;20219;-72
2021/08/29 00:05:19;;;;;;;6.70;4.07;;;14.20;99.90;;;;;;4954174;28;20191;-71
2021/08/29 00:07:47;;;;;;;8.00;3.83;;;14.30;99.90;;;;;;4953943;28;20562;-68
2021/08/29 00:10:14;;;;;;;10.23;4.40;;;14.30;99.90;;;;;;4955275;28;20198;-69
2021/08/29 00:12:42;;;;;;;7.97;4.13;;;14.40;99.90;;;;;;4974059;28;20229;-67
2021/08/29 00:15:09;;;;;;;11.83;5.00;;;14.50;99.90;;;;;;4949384;28;20183;-71
2021/08/29 00:17:37;;;;;;;5.93;4.17;;;14.40;99.90;;;;;;4945137;28;20264;-67
2021/08/29 00:20:06;;;;;;;8.53;4.30;;;14.50;99.90;;;;;;4947307;28;20323;-61
2021/08/29 00:22:33;;;;;;;6.23;3.93;;;14.50;99.90;;;;;;4962827;28;20299;-72
2021/08/29 00:25:01;;;;;;;7.07;4.40;;;14.70;99.90;;;;;;4953121;28;20190;-59
2021/08/29 00:27:28;;;;;;;8.27;3.83;;;14.80;99.90;;;;;;4947255;28;20554;-64
2021/08/29 00:29:56;;;;;;;9.97;3.90;;;14.80;99.90;;;;;;4953341;28;20176;-60
2021/08/29 00:32:23;;;;;;;6.13;4.23;;;14.90;99.90;;;;;;4956362;28;20179;-60
2021/08/29 00:34:51;;;;;;;4.90;3.70;;;14.90;99.90;;;;;;4953309;28;20191;-58
2021/08/29 00:37:18;;;;;;;6.80;3.87;;;15.00;99.90;;;;;;4958150;28;20179;-58
2021/08/29 00:39:45;;;;;;;9.50;4.07;;;15.10;99.90;;;;;;4954432;29;20175;-61
2021/08/29 00:42:14;;;;;;;8.03;3.97;;;14.90;99.90;;;;;;4951053;28;20223;-59
2021/08/29 00:44:41;;;;;;;10.30;3.87;;;14.90;99.90;;;;;;4953957;29;20836;-60
2021/08/29 00:47:09;;;;;;;8.53;5.47;;;14.80;99.90;;;;;;4952481;28;20187;-67
2021/08/29 00:49:43;;;;;;;6.17;3.90;;;14.80;99.90;;;;;;4949079;29;20207;-61
2021/08/29 00:52:12;;;;;;;6.63;4.07;;;14.60;99.90;;;;;;4948937;28;20559;-62
2021/08/29 00:54:39;;;;;;;6.27;3.90;;;14.50;99.90;;;;;;4953419;28;20658;-65
2021/08/29 00:57:08;;;;;;;4.47;3.60;;;14.60;99.90;;;;;;4971971;28;20190;-60
2021/08/29 00:59:38;;;;;;;6.80;3.97;;;14.50;99.90;;;;;;4960210;28;20207;-59
2021/08/29 01:02:23;;;;;;;6.53;4.17;;;14.60;99.90;;;;;;4956307;28;20637;-58
2021/08/29 01:04:56;;;;;;;8.47;5.23;;;14.60;99.90;;;;;;4954274;28;20327;-59
2021/08/29 01:07:33;;;;;;;6.87;3.90;;;14.70;99.90;;;;;;4952693;28;20184;-59
2021/08/29 01:10:04;;;;;;;7.10;3.83;;;14.80;99.90;;;;;;4941781;29;20175;-67
2021/08/29 01:12:32;;;;;;;7.17;3.93;;;15.00;99.90;;;;;;4950170;28;20191;-71
2021/08/29 01:15:03;;;;;;;5.90;3.40;;;14.90;99.90;;;;;;4960986;28;20553;-66
2021/08/29 01:17:34;;;;;;;11.27;4.90;;;14.90;99.90;;;;;;4973414;28;20661;-66
2021/08/29 01:20:13;;;;;;;7.10;3.33;;;15.10;99.90;;;;;;4959835;28;20193;-64
2021/08/29 01:22:42;;;;;;;6.73;4.40;;;15.40;99.90;;;;;;4968666;28;20696;-62
2021/08/29 01:25:17;;;;;;;8.90;3.77;;;16.00;99.90;;;;;;4956856;28;20211;-71
2021/08/29 01:27:53;;;;;;;5.03;3.60;;;16.50;99.90;;;;;;4962997;28;20187;-64
2021/08/29 01:30:20;;;;;;;6.77;3.30;;;16.90;99.90;;;;;;4951357;28;20192;-63
2021/08/29 01:32:49;;;;;;;13.60;2.57;;;17.10;99.90;;;;;;4956699;28;20230;-64
2021/08/29 01:35:17;;;;;;;5.27;2.67;;;17.00;99.90;;;;;;4955025;28;20234;-73
2021/08/29 01:37:44;;;;;;;5.17;2.43;;;16.70;99.90;;;;;;4957677;29;20674;-68
2021/08/29 01:40:13;;;;;;;4.80;2.40;;;16.70;99.90;;;;;;4971016;28;20481;-71
2021/08/29 01:42:41;;;;;;;5.80;2.20;;;16.50;99.90;;;;;;4973571;28;20573;-70
2021/08/29 01:45:10;;;;;;;4.00;1.97;;;16.20;99.90;;;;;;4953928;28;20306;-69
2021/08/29 01:47:38;;;;;;;3.70;2.17;;;16.00;99.90;;;;;;4953748;28;20192;-74
2021/08/29 01:50:06;;;;;;;3.50;2.40;;;16.00;99.90;;;;;;4969746;28;20705;-66
2021/08/29 01:52:34;;;;;;;7.57;2.80;;;16.10;99.90;;;;;;4954793;28;20183;-73
2021/08/29 01:55:01;;;;;;;3.83;2.30;;;16.30;99.90;;;;;;4966014;28;20179;-64
2021/08/29 01:57:31;;;;;;;8.47;2.67;;;16.40;99.90;;;;;;4972401;28;20182;-72
2021/08/29 01:59:58;;;;;;;6.57;2.33;;;16.70;99.90;;;;;;4976796;28;20190;-67
2021/08/29 02:02:25;;;;;;;6.90;2.20;;;16.80;99.90;;;;;;4959740;28;20569;-72
2021/08/29 02:04:53;;;;;;;9.83;1.97;;;16.90;99.90;;;;;;4956529;29;20185;-71
2021/08/29 02:07:48;;;;;;;6.47;2.23;;;16.80;99.90;;;;;;4969677;28;20187;-69
2021/08/29 02:10:23;;;;;;;7.73;2.03;;;16.90;99.90;;;;;;4951082;28;20349;-72
2021/08/29 02:13:05;;;;;;;8.53;1.87;;;17.00;99.90;;;;;;4962759;28;20191;-69
2021/08/29 02:15:57;;;;;;;6.30;1.50;;;17.10;99.90;;;;;;4953969;28;20194;-70
2021/08/29 02:18:26;;;;;;;9.10;1.53;;;17.10;99.90;;;;;;4953369;28;20789;-68
2021/08/29 02:20:54;;;;;;;4.03;1.47;;;17.10;99.90;;;;;;4966499;28;20228;-69
2021/08/29 02:23:23;;;;;;;6.93;1.23;;;17.10;99.90;;;;;;4976756;28;20197;-59
2021/08/29 02:25:51;;;;;;;7.40;1.87;;;17.50;99.90;;;;;;4945704;28;20213;-60
2021/08/29 02:28:19;;;;;;;5.27;1.63;;;18.20;99.90;;;;;;4969997;28;20179;-60
2021/08/29 02:30:47;;;;;;;5.43;1.57;;;18.50;99.70;;;;;;4949044;28;20278;-62
2021/08/29 02:33:15;;;;;;;2.30;0.97;;;18.80;99.30;;;;;;4976335;28;20183;-60
2021/08/29 02:35:43;;;;;;;7.63;1.60;;;18.40;98.40;;;;;;4946352;28;20283;-59
2021/08/29 02:38:11;;;;;;;6.03;1.70;;;18.10;98.20;;;;;;4937583;29;20187;-60
2021/08/29 02:40:43;;;;;;;4.43;1.40;;;17.90;98.50;;;;;;4960633;28;20213;-60
2021/08/29 02:43:12;;;;;;;6.17;1.73;;;17.80;99.60;;;;;;4968149;28;20247;-59
2021/08/29 02:45:43;;;;;;;6.13;1.40;;;17.90;99.50;;;;;;4961885;28;20207;-60
2021/08/29 02:48:11;;;;;;;4.17;1.20;;;18.00;99.10;;;;;;4975322;28;20201;-62
2021/08/29 02:50:40;;;;;;;4.67;2.07;;;17.90;99.10;;;;;;4951212;28;20194;-62
2021/08/29 02:53:08;;;;;;;6.27;1.40;;;18.10;99.10;;;;;;4947358;28;20198;-60
2021/08/29 02:55:38;;;;;;;9.83;1.60;;;18.20;99.00;;;;;;4951626;28;20198;-60
2021/08/29 02:58:08;;;;;;;4.63;1.40;;;18.20;99.40;;;;;;4956339;28;20332;-67
2021/08/29 03:00:35;;;;;;;4.23;1.87;;;18.30;99.40;;;;;;4952922;28;20653;-61
2021/08/29 03:03:03;;;;;;;7.53;1.80;;;18.70;99.00;;;;;;4958456;28;20226;-59
2021/08/29 03:05:30;;;;;;;6.47;1.87;;;18.90;99.00;;;;;;4954478;28;20551;-61
2021/08/29 03:07:58;;;;;;;4.73;1.50;;;19.30;98.70;;;;;;4954337;28;20196;-61
2021/08/29 03:10:26;;;;;;;8.47;1.60;;;19.10;98.60;;;;;;4952915;28;20650;-60
2021/08/29 03:12:54;;;;;;;9.23;1.83;;;18.90;99.50;;;;;;4952653;28;20249;-60
2021/08/29 03:15:22;;;;;;;7.13;2.07;;;18.80;99.60;;;;;;4945114;28;20203;-59
2021/08/29 03:17:49;;;;;;;5.80;2.27;;;18.60;99.20;;;;;;4951685;28;20190;-64
2021/08/29 03:20:17;;;;;;;4.77;1.57;;;18.40;99.20;;;;;;4953168;28;20605;-59
2021/08/29 03:22:45;;;;;;;4.53;1.73;;;18.70;99.10;;;;;;4959641;28;20229;-61
2021/08/29 03:25:12;;;;;;;6.07;1.47;;;19.00;98.30;;;;;;4957720;28;20188;-60
2021/08/29 03:27:40;;;;;;;5.23;1.60;;;18.90;98.40;;;;;;4963476;28;20257;-62
2021/08/29 03:30:08;;;;;;;9.00;2.20;;;18.90;98.90;;;;;;4954573;28;20191;-63
2021/08/29 03:32:37;;;;;;;6.30;1.70;;;18.90;99.20;;;;;;4952747;28;20187;-64
2021/08/29 03:35:05;;;;;;;4.63;1.67;;;19.00;99.60;;;;;;4965512;28;20186;-64
2021/08/29 03:37:33;;;;;;;7.17;1.67;;;19.20;99.10;;;;;;4948683;28;20195;-59
2021/08/29 03:40:03;;;;;;;7.27;1.53;;;19.10;98.70;;;;;;4952883;28;20547;-62
2021/08/29 03:42:32;;;;;;;4.37;1.53;;;19.00;99.00;;;;;;4954549;28;20293;-64
2021/08/29 03:45:01;;;;;;;5.47;1.77;;;19.30;99.30;;;;;;4955329;28;20194;-64
2021/08/29 03:47:29;;;;;;;6.93;1.70;;;19.30;98.80;;;;;;4950732;28;20190;-68
2021/08/29 03:49:56;;;;;;;4.90;1.60;;;19.00;98.60;;;;;;4952535;28;20258;-71
2021/08/29 03:52:24;;;;;;;8.23;1.90;;;18.80;99.10;;;;;;4955696;28;20187;-73
2021/08/29 03:54:52;;;;;;;7.50;1.57;;;18.60;96.80;;;;;;4946120;28;20187;-72
2021/08/29 03:57:19;;;;;;;6.47;1.60;;;18.50;97.30;;;;;;4951571;28;20638;-74
2021/08/29 03:59:47;;;;;;;7.13;1.63;;;18.40;97.80;;;;;;4948247;28;20186;-72
2021/08/29 04:02:15;;;;;;;3.77;1.50;;;18.60;98.20;;;;;;4957322;28;20222;-69
2021/08/29 04:04:42;;;;;;;3.97;1.40;;;18.70;98.00;;;;;;4974057;28;20564;-62
2021/08/29 04:07:10;;;;;;;8.70;1.40;;;19.50;96.90;;;;;;4953242;28;20193;-71
2021/08/29 04:09:37;;;;;;;4.77;1.47;;;20.50;95.50;;;;;;4952287;28;20710;-71
2021/08/29 04:12:06;;;;;;;3.27;1.07;;;20.60;93.90;;;;;;4954741;28;20521;-61
2021/08/29 04:14:33;;;;;;;3.00;1.20;;;20.70;92.30;;;;;;4954614;28;20184;-77
2021/08/29 04:17:03;;;;;;;3.80;1.13;;;20.10;92.50;;;;;;4968036;28;20194;-72
2021/08/29 04:19:31;;;;;;;8.53;2.93;;;19.50;92.70;;;;;;4943468;28;20544;-66
2021/08/29 04:21:58;;;;;;;6.87;1.37;;;19.30;93.30;;;;;;4974156;28;20635;-63
2021/08/29 04:24:26;;;;;;;6.93;1.60;;;19.30;93.40;;;;;;4963778;28;20184;-70
2021/08/29 04:26:53;;;;;;;2.80;1.10;;;19.10;93.40;;;;;;4951630;28;20266;-72
2021/08/29 04:29:21;;;;;;;6.00;1.30;;;18.90;93.30;;;;;;4951940;28;20281;-65
2021/08/29 04:31:51;;;;;;;6.33;1.40;;;18.90;93.80;;;;;;4954648;28;20242;-73
2021/08/29 04:34:19;;;;;;;4.23;1.57;;;18.80;93.90;;;;;;4947379;28;20187;-65
2021/08/29 04:36:46;;;;;;;2.60;1.13;;;18.70;94.10;;;;;;4953367;28;21087;-66
2021/08/29 04:39:13;;;;;;;5.70;1.43;;;18.70;94.10;;;;;;4944440;28;20214;-69
2021/08/29 04:41:41;;;;;;;6.33;1.77;;;18.60;94.40;;;;;;4952887;28;20223;-64
2021/08/29 04:44:10;;;;;;;10.70;2.20;;;18.70;94.60;;;;;;4949353;28;20855;-75
2021/08/29 04:46:38;;;;;;;2.73;1.27;;;18.80;94.30;;;;;;4952838;28;20199;-66
2021/08/29 04:49:06;;;;;;;4.27;1.47;;;19.00;94.30;;;;;;4952643;28;20201;-61
2021/08/29 04:51:33;;;;;;;3.30;1.27;;;19.00;94.40;;;;;;4952070;28;20184;-73
2021/08/29 04:54:00;;;;;;;5.53;1.67;;;19.00;94.80;;;;;;4949039;28;20195;-66
2021/08/29 04:56:28;;;;;;;3.27;1.37;;;19.00;94.80;;;;;;4951593;28;20191;-70
2021/08/29 04:58:55;;;;;;;7.53;1.80;;;18.90;94.70;;;;;;4948635;28;20191;-62
2021/08/29 05:01:26;;;;;;;6.40;1.40;;;18.80;95.10;;;;;;4956706;28;20210;-65
2021/08/29 05:03:54;;;;;;;5.53;1.37;;;18.60;95.40;;;;;;4953370;28;20724;-71
2021/08/29 05:06:21;;;;;;;4.30;1.73;;;18.40;95.40;;;;;;4956751;28;20688;-62
2021/08/29 05:08:49;;;;;;;4.30;1.43;;;18.40;95.80;;;;;;4948248;28;20202;-66
2021/08/29 05:11:16;;;;;;;7.10;1.23;;;18.30;95.40;;;;;;4956683;28;20190;-60
2021/08/29 05:13:43;;;;;;;6.77;1.63;;;18.30;95.40;;;;;;4954697;28;20285;-69
2021/08/29 05:16:11;;;;;;;8.00;1.60;;;18.40;95.90;;;;;;4957324;28;20273;-62
2021/08/29 05:18:38;;;;;;;4.83;1.60;;;18.40;95.50;;;;;;4954755;28;20232;-73
2021/08/29 05:21:05;;;;;;;3.03;1.37;;;18.20;95.60;;;;;;4950937;28;20591;-61
2021/08/29 05:23:33;;;;;;;4.73;1.57;;;18.20;95.60;;;;;;4952327;28;20192;-71
2021/08/29 05:26:00;;;;;;;9.27;1.97;;;18.00;95.40;;;;;;4954404;28;20202;-72
2021/08/29 05:28:28;;;;;;;7.43;1.40;;;17.90;95.50;;;;;;4951266;28;20202;-68
2021/08/29 05:30:55;;;;;;;4.27;1.53;;;17.90;96.10;;;;;;4963838;28;20208;-70
2021/08/29 05:33:23;;;;;;;4.00;1.50;;;17.90;96.00;;;;;;4957398;28;20191;-62
2021/08/29 05:35:50;;;;;;;7.20;1.87;;;17.90;95.80;;;;;;4950778;28;20187;-73
2021/08/29 05:38:17;;;;;;;7.47;1.57;;;18.00;95.80;;;;;;4957037;28;20237;-66
2021/08/29 05:40:44;;;;;;;3.07;1.13;;;17.80;95.90;;;;;;4953770;28;20649;-61
2021/08/29 05:43:12;;;;;;;6.80;1.50;;;17.80;95.80;;;;;;4956237;28;20283;-67
2021/08/29 05:45:39;;;;;;;5.77;1.90;;;17.80;95.80;;;;;;4961267;28;20550;-66
2021/08/29 05:48:07;;;;;;;8.73;2.83;;;17.80;95.90;;;;;;4953442;28;20218;-66
2021/08/29 05:50:34;;;;;;;5.13;2.13;;;17.70;96.00;;;;;;4957153;28;20209;-65
2021/08/29 05:53:01;;;;;;;5.97;3.30;;;17.60;96.20;;;;;;4951273;28;20194;-63
2021/08/29 05:55:29;;;;;;;4.80;3.23;;;17.60;96.10;;;;;;4947233;28;20335;-64
2021/08/29 05:57:56;;;;;;;6.60;2.00;;;17.60;96.20;;;;;;4959123;28;20194;-70
2021/08/29 06:00:23;;;;;;;4.90;1.50;;;17.60;96.30;;;;;;4946668;28;20182;-72
2021/08/29 06:02:51;;;;;;;6.43;1.43;;;17.50;96.30;;;;;;4948348;28;20261;-71
2021/08/29 06:05:18;;;;;;;7.37;1.73;;;17.50;96.30;;;;;;4951379;28;20191;-71
2021/08/29 06:07:45;;;;;;;5.63;1.40;;;17.50;96.30;;;;;;4957890;28;20317;-68
2021/08/29 06:10:13;;;;;;;11.63;2.27;;;17.40;96.30;;;;;;4949643;28;20176;-67
2021/08/29 06:12:40;;;;;;;6.37;1.40;;;17.40;96.50;;;;;;4949188;28;20685;-73
2021/08/29 06:15:08;;;;;;;5.30;1.50;;;17.40;96.50;;;;;;4952283;28;20578;-72
2021/08/29 06:17:36;;;;;;;8.73;1.50;;;17.30;96.20;;;;;;4949607;28;20188;-72
2021/08/29 06:20:05;;;;;;;8.70;1.90;;;17.20;96.40;;;;;;4948287;28;20178;-71
2021/08/29 06:22:32;;;;;;;4.63;1.97;;;17.20;97.00;;;;;;4945073;28;20254;-73
2021/08/29 06:25:00;;;;;;;4.00;2.43;;;17.10;96.80;;;;;;4951214;28;20217;-71
2021/08/29 06:27:27;;;;;;;4.77;2.87;;;16.90;96.90;;;;;;4948937;29;20200;-66
2021/08/29 06:29:54;;;;;;;5.87;3.27;;;16.80;97.60;;;;;;4946046;29;20204;-74
2021/08/29 06:32:22;;;;;;;5.97;2.70;;;16.80;98.40;;;;;;4956514;28;20238;-68
2021/08/29 06:34:49;;;;;;;5.67;3.03;;;16.60;98.90;;;;;;4957187;28;20254;-75
2021/08/29 06:37:16;;;;;;;7.13;3.80;;;16.50;98.80;;;;;;4953954;28;20658;-59
2021/08/29 06:39:44;;;;;;;6.43;2.93;;;16.40;99.90;;;;;;4957585;28;20624;-64
2021/08/29 06:42:11;;;;;;;8.10;3.27;;;16.40;99.20;;;;;;4957759;28;20318;-68
2021/08/29 06:44:38;;;;;;;7.20;3.30;;;16.40;99.30;;;;;;4946619;28;20267;-74
2021/08/29 06:47:06;;;;;;;4.43;2.70;;;16.40;99.50;;;;;;4945628;28;20219;-71
2021/08/29 06:49:33;;;;;;;7.03;3.00;;;16.40;99.60;;;;;;4955680;28;20193;-70
2021/08/29 06:52:00;;;;;;;5.17;2.50;;;16.30;99.90;;;;;;4950592;28;20682;-62
2021/08/29 06:54:28;;;;;;;5.17;2.37;;;16.30;99.90;;;;;;4946951;28;20187;-63
2021/08/29 06:56:55;;;;;;;5.17;2.53;;;16.30;99.90;;;;;;4948475;28;20183;-70
2021/08/29 06:59:22;;;;;;;5.90;2.93;;;16.30;99.90;;;;;;4957488;28;20179;-69
2021/08/29 07:01:51;;;;;;;8.23;2.83;;;16.30;99.90;;;;;;4959771;28;20211;-68
2021/08/29 07:04:18;;;;;;;5.73;2.90;;;16.50;99.90;;;;;;4961203;28;20182;-58
2021/08/29 07:06:45;;;;;;;7.10;2.70;;;16.50;99.90;;;;;;4962850;28;20180;-59
2021/08/29 07:09:13;;;;;;;8.60;3.10;;;16.50;99.90;;;;;;4948391;28;20193;-60
2021/08/29 07:11:40;;;;;;;9.10;3.33;;;16.40;99.90;;;;;;4956708;28;20189;-59
2021/08/29 07:14:07;;;;;;;5.50;3.23;;;16.30;99.90;;;;;;4947509;28;20183;-58
2021/08/29 07:16:34;;;;;;;10.40;3.10;;;16.20;99.90;;;;;;4948405;28;20609;-61
2021/08/29 07:19:02;;;;;;;6.30;4.53;;;16.10;99.90;;;;;;4967615;28;20185;-59
2021/08/29 07:21:29;;;;;;;13.43;5.90;;;16.00;99.90;;;;;;4973081;28;20657;-59
2021/08/29 07:23:57;;;;;;;12.13;6.30;;;15.80;99.90;;;;;;4974379;28;20178;-60
2021/08/29 07:26:24;;;;;;;10.00;5.27;;;15.70;99.90;;;;;;4957922;28;20509;-59
2021/08/29 07:28:52;;;;;;;8.20;4.83;;;15.60;99.90;;;;;;4966083;28;20178;-63
2021/08/29 07:31:20;;;;;;;8.27;4.77;;;15.50;99.90;;;;;;4975036;28;20231;-59
2021/08/29 07:33:47;;;;;;;6.27;4.17;;;15.40;99.90;;;;;;4975350;28;20202;-64
2021/08/29 07:36:14;;;;;;;8.20;4.47;;;15.30;99.90;;;;;;4975102;28;20178;-65
2021/08/29 07:38:41;;;;;;;6.47;3.87;;;15.20;99.90;;;;;;4969209;28;20193;-63
2021/08/29 07:41:09;;;;;;;8.03;4.40;;;15.10;99.90;;;;;;4952877;28;20186;-62
2021/08/29 07:43:36;;;;;;;7.30;4.40;;;15.10;99.90;;;;;;4947313;28;20705;-63
2021/08/29 07:46:03;;;;;;;9.97;4.13;;;15.00;99.90;;;;;;4957569;28;20653;-73
2021/08/29 07:48:31;;;;;;;8.63;3.83;;;14.90;99.90;;;;;;4957469;28;20199;-64
2021/08/29 07:50:58;;;;;;;12.37;4.10;;;14.80;99.90;;;;;;4953011;28;20213;-71
2021/08/29 07:53:26;;;;;;;9.63;4.37;;;14.70;99.90;;;;;;4969287;28;20539;-71
2021/08/29 07:55:53;;;;;;;6.83;4.10;;;14.60;99.90;;;;;;4957821;28;20191;-70
2021/08/29 07:58:20;;;;;;;7.73;4.33;;;14.60;99.90;;;;;;4970294;28;20220;-70
2021/08/29 08:00:48;;;;;;;8.17;4.10;;;14.50;99.90;;;;;;4941336;29;20194;-71
2021/08/29 08:03:17;;;;;;;7.10;4.30;;;14.40;99.90;;;;;;4952708;28;20223;-70
2021/08/29 08:05:47;;;;;;;12.17;4.17;;;14.40;99.90;;;;;;4954573;29;20186;-71
2021/08/29 08:08:15;;;;;;;8.13;4.00;;;14.20;99.90;;;;;;4954913;29;20195;-71
2021/08/29 08:10:42;;;;;;;13.03;5.10;;;14.20;99.90;;;;;;4951165;28;20665;-69
2021/08/29 08:13:10;;;;;;;10.47;6.07;;;14.20;99.90;;;;;;4942626;28;20188;-71
2021/08/29 08:15:37;;;;;;;12.73;5.50;;;14.20;99.90;;;;;;4951055;28;20191;-67
2021/08/29 08:18:05;;;;;;;15.40;5.87;;;14.10;99.90;;;;;;4956282;28;20184;-71
2021/08/29 08:20:32;;;;;;;12.80;5.83;;;14.10;99.90;;;;;;4949358;28;20195;-70
2021/08/29 08:22:59;;;;;;;10.17;6.03;;;14.00;99.90;;;;;;4961341;28;20209;-68
2021/08/29 08:25:27;;;;;;;14.67;6.10;;;14.00;99.90;;;;;;4955187;28;20232;-69
2021/08/29 08:27:54;;;;;;;12.70;6.50;;;14.00;99.90;;;;;;4951819;28;20281;-71
2021/08/29 08:30:21;;;;;;;11.83;6.50;;;14.00;99.90;;;;;;4951040;28;20190;-71
2021/08/29 08:32:49;;;;;;;13.67;9.07;;;13.90;99.90;;;;;;4946069;28;20242;-71
2021/08/29 08:35:16;;;;;;;14.87;9.10;;;13.90;99.90;;;;;;4948234;29;20590;-71
2021/08/29 08:37:43;;;;;;;17.43;9.40;;;14.00;99.90;;;;;;4948695;29;20561;-71
2021/08/29 08:40:12;;;;;;;11.23;8.03;;;14.00;99.90;;;;;;4951328;28;20243;-71
2021/08/29 08:42:39;;;;;;;19.53;8.60;;;14.00;99.90;;;;;;4944314;29;20235;-71
2021/08/29 08:45:08;;;;;;;15.57;9.13;;;14.00;99.90;;;;;;4945519;29;20239;-72
2021/08/29 08:47:42;;;;;;;23.00;13.77;;;14.00;99.90;;;;;;4949607;28;20187;-72
2021/08/29 08:50:11;;;;;;;27.17;12.80;;;13.90;99.90;;;;;;4951070;28;20271;-70
2021/08/29 08:52:39;;;;;;;15.17;8.27;;;13.90;99.90;;;;;;4948642;28;20183;-72
2021/08/29 08:55:07;;;;;;;12.40;8.13;;;13.80;99.90;;;;;;4947909;28;20208;-64
2021/08/29 08:57:38;;;;;;;13.97;7.37;;;13.70;99.90;;;;;;4963822;28;20186;-68
2021/08/29 09:00:06;;;;;;;14.27;7.73;;;13.70;99.90;;;;;;4959869;28;20533;-70
2021/08/29 09:02:33;;;;;;;13.57;7.60;;;13.70;99.90;;;;;;4952693;28;20249;-71
2021/08/29 09:05:04;;;;;;;14.53;6.70;;;13.60;99.90;;;;;;4941506;28;20266;-69
2021/08/29 09:07:31;;;;;;;12.37;7.60;;;13.60;99.90;;;;;;4946096;28;20675;-66
2021/08/29 09:09:58;;;;;;;12.93;7.07;;;13.50;99.90;;;;;;4954127;28;20178;-70
2021/08/29 09:12:26;;;;;;;15.10;7.43;;;13.50;99.90;;;;;;4955852;28;20183;-68
2021/08/29 09:14:57;;;;;;;13.17;7.30;;;13.40;99.90;;;;;;4947869;28;20531;-70
2021/08/29 09:17:27;;;;;;;15.00;8.67;;;13.40;99.90;;;;;;4948952;28;20666;-71
2021/08/29 09:20:23;;;;;;;14.93;8.70;;;13.40;99.90;;;;;;4952924;28;20186;-66
2021/08/29 09:22:59;;;;;;;15.83;9.07;;;13.30;99.90;;;;;;4946315;28;20230;-63
2021/08/29 09:25:29;;;;;;;16.50;8.70;;;13.20;99.90;;;;;;4951662;28;20276;-62
2021/08/29 09:27:58;;;;;;;15.47;8.43;;;13.20;99.90;;;;;;4944289;28;20211;-69
2021/08/29 09:30:28;;;;;;;14.37;7.90;;;13.10;99.90;;;;;;4940660;28;20199;-71
2021/08/29 09:33:04;;;;;;;15.67;8.43;;;13.10;99.90;;;;;;4943096;28;20188;-64
2021/08/29 09:35:35;;;;;;;16.13;8.43;;;13.10;99.90;;;;;;4946994;28;20215;-67
2021/08/29 09:38:05;;;;;;;10.73;7.70;;;13.00;99.90;;;;;;4942115;28;20230;-63
2021/08/29 09:40:37;;;;;;;14.00;7.83;;;13.00;99.90;;;;;;4948368;28;20195;-64
2021/08/29 09:43:08;;;;;;;10.17;7.30;;;12.90;99.90;;;;;;4946256;28;20698;-63
2021/08/29 09:45:37;;;;;;;12.53;7.47;;;12.90;99.90;;;;;;4952695;28;20188;-68
2021/08/29 09:48:27;;;;;;;14.57;7.60;;;12.80;99.90;;;;;;4949717;28;20197;-65
2021/08/29 09:50:57;;;;;;;13.97;8.13;;;12.80;99.90;;;;;;4942950;29;20184;-67
2021/08/29 09:53:25;;;;;;;14.07;7.53;;;12.80;99.90;;;;;;4954423;28;20168;-70
2021/08/29 09:55:52;;;;;;;11.73;7.67;;;12.80;99.90;;;;;;4957348;28;20182;-70
2021/08/29 09:58:33;;;;;;;21.40;10.60;;;12.70;99.90;;;;;;4955196;28;20569;-69
2021/08/29 10:01:09;;;;;;;13.40;8.47;;;12.80;99.90;;;;;;4947146;28;20668;-71
2021/08/29 10:03:38;;;;;;;12.53;7.73;;;12.70;99.90;;;;;;4947597;28;21051;-71
2021/08/29 10:06:29;;;;;;;15.83;7.63;;;12.70;99.90;;;;;;4948136;28;20643;-71
2021/08/29 10:08:58;;;;;;;17.70;7.57;;;12.70;99.90;;;;;;4952989;29;20226;-71
2021/08/29 10:11:27;;;;;;;16.80;8.37;;;12.60;99.90;;;;;;4952014;28;20218;-71
2021/08/29 10:13:56;;;;;;;15.03;8.50;;;12.60;99.90;;;;;;4950875;29;20530;-72
2021/08/29 10:16:26;;;;;;;17.03;9.70;;;12.50;99.90;;;;;;4950145;29;20187;-70
2021/08/29 10:18:58;;;;;;;22.43;10.97;;;12.50;99.90;;;;;;4952030;28;20199;-71
2021/08/29 10:21:27;;;;;;;19.77;11.03;;;12.40;99.90;;;;;;4952649;29;20242;-70
2021/08/29 10:23:57;;;;;;;22.23;11.53;;;12.30;99.90;;;;;;4948754;28;20215;-72
2021/08/29 10:26:26;;;;;;;20.00;11.70;;;12.30;99.90;;;;;;4945682;29;20584;-72
2021/08/29 10:28:59;;;;;;;19.17;12.37;;;12.30;99.90;;;;;;4952857;29;20550;-71
2021/08/29 10:31:57;;;;;;;25.47;12.93;;;12.20;99.90;;;;;;4951551;28;20553;-71
2021/08/29 10:34:25;;;;;;;20.03;10.67;;;12.20;99.90;;;;;;4919670;29;20560;-71
2021/08/29 10:36:54;;;;;;;19.00;10.60;;;12.10;99.90;;;;;;4952462;29;20539;-72
2021/08/29 10:39:22;;;;;;;20.23;11.33;;;12.10;99.90;;;;;;4940638;29;20661;-71
2021/08/29 10:41:50;;;;;;;18.80;10.77;;;12.00;99.90;;;;;;4951863;28;20267;-72
2021/08/29 10:44:18;;;;;;;17.07;10.17;;;12.10;99.90;;;;;;4953812;29;20194;-72
2021/08/29 10:46:47;;;;;;;14.60;9.43;;;12.00;99.90;;;;;;4956744;29;20183;-73
2021/08/29 10:49:19;;;;;;;18.50;9.67;;;12.00;99.90;;;;;;4954594;29;20187;-72
2021/08/29 10:51:50;;;;;;;20.23;10.20;;;11.90;99.90;;;;;;4952313;29;20197;-72
2021/08/29 10:54:18;;;;;;;17.17;10.27;;;11.90;99.90;;;;;;4950993;28;20226;-72
2021/08/29 10:56:46;;;;;;;14.33;9.33;;;11.90;99.90;;;;;;4948994;29;20194;-72
2021/08/29 10:59:19;;;;;;;14.87;9.87;;;11.90;99.90;;;;;;4956463;29;20179;-71
2021/08/29 11:01:49;;;;;;;15.97;8.97;;;11.80;99.90;;;;;;4951769;29;20235;-71
2021/08/29 11:04:20;;;;;;;17.43;10.13;;;11.80;99.90;;;;;;4944105;28;20191;-72
2021/08/29 11:07:06;;;;;;;20.53;10.83;;;11.70;99.90;;;;;;4952636;28;20270;-72
2021/08/29 11:09:36;;;;;;;21.00;10.97;;;11.70;99.90;;;;;;4943038;29;20681;-71
2021/08/29 11:12:05;;;;;;;24.03;10.87;;;11.70;99.90;;;;;;4948680;29;20239;-70
2021/08/29 11:14:52;;;;;;;20.13;10.97;;;11.70;99.90;;;;;;4949154;29;20206;-71
2021/08/29 11:17:25;;;;;;;16.30;10.53;;;11.80;99.90;;;;;;4955837;29;20184;-72
2021/08/29 11:20:10;;;;;;;20.70;10.27;;;11.80;99.90;;;;;;4950071;29;20184;-68
2021/08/29 11:22:48;;;;;;;17.30;10.20;;;11.80;99.90;;;;;;4943942;28;20214;-68
2021/08/29 11:25:23;;;;;;;750.30;311.93;;;11.80;99.90;;;;;;4954316;28;20185;-69
2021/08/29 11:28:02;;;;;;;743.03;308.67;;;11.70;99.90;;;;;;4944766;28;20194;-70
2021/08/29 11:30:36;;;;;;;746.50;301.40;;;11.70;99.90;;;;;;4945866;28;20180;-65
2021/08/29 11:33:08;;;;;;;753.93;303.97;;;11.60;99.90;;;;;;4953046;28;20237;-68
2021/08/29 11:35:43;;;;;;;753.83;305.40;;;11.50;99.90;;;;;;4955305;29;20191;-70
2021/08/29 11:38:18;;;;;;;754.70;303.83;;;11.40;99.90;;;;;;4955995;28;20186;-65
2021/08/29 11:41:13;;;;;;;753.20;303.73;;;11.40;99.90;;;;;;4951604;29;20182;-67
2021/08/29 11:43:45;;;;;;;754.27;299.23;;;11.40;99.90;;;;;;4943132;28;20242;-67
2021/08/29 11:46:23;;;;;;;754.17;303.63;;;11.40;99.90;;;;;;4946067;28;20220;-70
2021/08/29 11:48:51;;;;;;;19.43;10.20;;;11.40;99.90;;;;;;4955489;28;20187;-71
2021/08/29 11:51:37;;;;;;;18.10;10.00;;;11.40;99.90;;;;;;4955402;28;20179;-72
2021/08/29 11:54:07;;;;;;;16.20;9.63;;;11.40;99.90;;;;;;4955149;29;20190;-72
2021/08/29 11:56:35;;;;;;;14.67;9.23;;;11.30;99.90;;;;;;4953966;28;20202;-68
2021/08/29 11:59:08;;;;;;;18.43;10.10;;;11.30;99.90;;;;;;4955496;29;20179;-72
2021/08/29 12:01:36;;;;;;;17.83;10.07;;;11.30;99.90;;;;;;4955631;29;20191;-71
2021/08/29 12:04:04;;;;;;;19.00;10.57;;;11.30;99.90;;;;;;4955041;28;20285;-72
2021/08/29 12:06:50;;;;;;;16.90;9.63;;;11.30;99.90;;;;;;4955057;29;20565;-72
2021/08/29 12:09:28;;;;;;;15.87;9.73;;;11.20;99.90;;;;;;4960174;28;20264;-69
2021/08/29 12:11:56;;;;;;;20.03;9.77;;;11.20;99.90;;;;;;4957363;28;20201;-72
2021/08/29 12:14:26;;;;;;;21.23;10.00;;;11.20;99.90;;;;;;4952844;28;20186;-70
2021/08/29 12:16:55;;;;;;;17.73;10.20;;;11.10;99.90;;;;;;4953225;28;20187;-73
2021/08/29 12:19:36;;;;;;;14.07;9.73;;;11.10;99.90;;;;;;4954515;29;20182;-70
2021/08/29 12:22:07;;;;;;;21.60;10.27;;;11.10;99.90;;;;;;4953569;28;20228;-69
2021/08/29 12:24:37;;;;;;;21.77;10.23;;;11.10;99.90;;;;;;4953101;29;20198;-66
2021/08/29 12:27:19;;;;;;;16.20;9.50;;;11.10;99.90;;;;;;4952945;28;20260;-68
2021/08/29 12:29:48;;;;;;;15.03;9.97;;;11.00;99.90;;;;;;4950499;29;20566;-60
2021/08/29 12:32:22;;;;;;;15.63;9.90;;;11.00;99.90;;;;;;4954985;28;20192;-62
2021/08/29 12:34:56;;;;;;;15.30;9.67;;;11.00;99.90;;;;;;4954059;28;20192;-67
2021/08/29 12:37:26;;;;;;;16.47;9.93;;;11.00;99.90;;;;;;4954906;29;20264;-58
2021/08/29 12:40:04;;;;;;;18.43;9.37;;;10.90;99.90;;;;;;4954284;29;20189;-70
2021/08/29 12:42:33;;;;;;;18.13;9.80;;;10.90;99.90;;;;;;4948179;29;20250;-71
2021/08/29 12:45:03;;;;;;;18.77;9.77;;;10.90;99.90;;;;;;4953612;28;20189;-71
2021/08/29 12:47:32;;;;;;;15.03;9.03;;;10.90;99.90;;;;;;4953426;28;20191;-69
2021/08/29 12:50:01;;;;;;;20.87;9.13;;;10.80;99.90;;;;;;4954105;29;20590;-70
2021/08/29 12:52:38;;;;;;;12.70;8.90;;;10.70;99.90;;;;;;4954671;28;20185;-69